sensor_id;sensor_type;location;lat;lon;timestamp;P1;durP1;ratioP1;P2;durP2;ratioP2
64037;SDS011;54641;50.168;8.492;2023-05-07T00:00:32;2.50;;;1.70;;
64037;SDS011;54641;50.168;8.492;2023-05-07T00:03:02;4.90;;;1.80;;
64037;SDS011;54641;50.168;8.492;2023-05-07T00:05:34;8.60;;;2.10;;
64037;SDS011;54641;50.168;8.492;2023-05-07T00:08:05;2.50;;;1.70;;
64037;SDS011;54641;50.168;8.492;2023-05-07T00:10:36;2.00;;;1.70;;
64037;SDS011;54641;50.168;8.492;2023-05-07T00:13:06;4.60;;;1.60;;
64037;SDS011;54641;50.168;8.492;2023-05-07T00:15:39;3.50;;;1.90;;
64037;SDS011;54641;50.168;8.492;2023-05-07T00:18:10;2.80;;;1.80;;
64037;SDS011;54641;50.168;8.492;2023-05-07T00:20:40;2.20;;;1.50;;
64037;SDS011;54641;50.168;8.492;2023-05-07T00:23:11;4.80;;;1.80;;
64037;SDS011;54641;50.168;8.492;2023-05-07T00:25:42;3.20;;;1.70;;
64037;SDS011;54641;50.168;8.492;2023-05-07T00:28:13;3.70;;;2.10;;
64037;SDS011;54641;50.168;8.492;2023-05-07T00:30:44;4.70;;;1.70;;
64037;SDS011;54641;50.168;8.492;2023-05-07T00:33:15;3.50;;;1.60;;
64037;SDS011;54641;50.168;8.492;2023-05-07T00:35:48;5.30;;;1.80;;
64037;SDS011;54641;50.168;8.492;2023-05-07T00:38:22;3.50;;;1.80;;
64037;SDS011;54641;50.168;8.492;2023-05-07T00:40:53;2.80;;;1.80;;
64037;SDS011;54641;50.168;8.492;2023-05-07T00:43:24;3.70;;;1.90;;
64037;SDS011;54641;50.168;8.492;2023-05-07T00:45:55;3.40;;;2.00;;
64037;SDS011;54641;50.168;8.492;2023-05-07T00:48:27;2.80;;;2.00;;
64037;SDS011;54641;50.168;8.492;2023-05-07T00:50:58;3.70;;;1.70;;
64037;SDS011;54641;50.168;8.492;2023-05-07T00:53:31;4.20;;;2.00;;
64037;SDS011;54641;50.168;8.492;2023-05-07T00:56:04;4.90;;;1.90;;
64037;SDS011;54641;50.168;8.492;2023-05-07T01:01:06;2.70;;;1.80;;
64037;SDS011;54641;50.168;8.492;2023-05-07T01:03:36;3.50;;;1.80;;
64037;SDS011;54641;50.168;8.492;2023-05-07T01:06:07;3.90;;;2.00;;
64037;SDS011;54641;50.168;8.492;2023-05-07T01:08:41;2.50;;;1.80;;
64037;SDS011;54641;50.168;8.492;2023-05-07T01:11:12;5.50;;;1.90;;
64037;SDS011;54641;50.168;8.492;2023-05-07T01:13:43;5.50;;;2.10;;
64037;SDS011;54641;50.168;8.492;2023-05-07T01:16:14;3.20;;;1.90;;
64037;SDS011;54641;50.168;8.492;2023-05-07T01:18:45;3.00;;;1.80;;
64037;SDS011;54641;50.168;8.492;2023-05-07T01:21:16;4.20;;;2.10;;
64037;SDS011;54641;50.168;8.492;2023-05-07T01:23:48;3.70;;;2.00;;
64037;SDS011;54641;50.168;8.492;2023-05-07T01:26:18;3.20;;;1.90;;
64037;SDS011;54641;50.168;8.492;2023-05-07T01:28:49;3.20;;;1.90;;
64037;SDS011;54641;50.168;8.492;2023-05-07T01:31:20;4.00;;;2.00;;
64037;SDS011;54641;50.168;8.492;2023-05-07T01:33:52;3.10;;;1.90;;
64037;SDS011;54641;50.168;8.492;2023-05-07T01:36:23;4.00;;;1.90;;
64037;SDS011;54641;50.168;8.492;2023-05-07T01:38:55;2.90;;;1.70;;
64037;SDS011;54641;50.168;8.492;2023-05-07T01:41:26;2.40;;;1.70;;
64037;SDS011;54641;50.168;8.492;2023-05-07T01:43:56;3.60;;;2.10;;
64037;SDS011;54641;50.168;8.492;2023-05-07T01:46:28;3.00;;;1.90;;
64037;SDS011;54641;50.168;8.492;2023-05-07T01:48:59;2.90;;;1.90;;
64037;SDS011;54641;50.168;8.492;2023-05-07T01:51:30;2.90;;;1.70;;
64037;SDS011;54641;50.168;8.492;2023-05-07T01:54:00;3.50;;;1.80;;
64037;SDS011;54641;50.168;8.492;2023-05-07T01:56:30;4.00;;;2.20;;
64037;SDS011;54641;50.168;8.492;2023-05-07T01:59:01;4.20;;;2.00;;
64037;SDS011;54641;50.168;8.492;2023-05-07T02:01:31;3.70;;;1.80;;
64037;SDS011;54641;50.168;8.492;2023-05-07T02:04:02;3.60;;;1.80;;
64037;SDS011;54641;50.168;8.492;2023-05-07T02:06:34;4.10;;;2.10;;
64037;SDS011;54641;50.168;8.492;2023-05-07T02:09:06;5.00;;;1.70;;
64037;SDS011;54641;50.168;8.492;2023-05-07T02:11:38;3.60;;;2.10;;
64037;SDS011;54641;50.168;8.492;2023-05-07T02:14:08;3.30;;;2.10;;
64037;SDS011;54641;50.168;8.492;2023-05-07T02:16:38;3.10;;;2.10;;
64037;SDS011;54641;50.168;8.492;2023-05-07T02:19:11;2.90;;;1.90;;
64037;SDS011;54641;50.168;8.492;2023-05-07T02:21:41;4.80;;;2.20;;
64037;SDS011;54641;50.168;8.492;2023-05-07T02:24:11;4.10;;;2.10;;
64037;SDS011;54641;50.168;8.492;2023-05-07T02:26:42;3.00;;;2.00;;
64037;SDS011;54641;50.168;8.492;2023-05-07T02:29:13;2.80;;;1.90;;
64037;SDS011;54641;50.168;8.492;2023-05-07T02:31:44;4.30;;;2.20;;
64037;SDS011;54641;50.168;8.492;2023-05-07T02:34:14;4.20;;;2.10;;
64037;SDS011;54641;50.168;8.492;2023-05-07T02:36:50;3.40;;;1.90;;
64037;SDS011;54641;50.168;8.492;2023-05-07T02:39:23;3.40;;;2.00;;
64037;SDS011;54641;50.168;8.492;2023-05-07T02:41:54;4.50;;;2.30;;
64037;SDS011;54641;50.168;8.492;2023-05-07T02:44:25;4.90;;;2.40;;
64037;SDS011;54641;50.168;8.492;2023-05-07T02:47:01;4.20;;;2.00;;
64037;SDS011;54641;50.168;8.492;2023-05-07T02:49:32;3.00;;;1.70;;
64037;SDS011;54641;50.168;8.492;2023-05-07T02:52:03;3.70;;;1.90;;
64037;SDS011;54641;50.168;8.492;2023-05-07T02:54:35;2.50;;;2.10;;
64037;SDS011;54641;50.168;8.492;2023-05-07T02:57:06;3.20;;;2.10;;
64037;SDS011;54641;50.168;8.492;2023-05-07T02:59:36;3.90;;;2.20;;
64037;SDS011;54641;50.168;8.492;2023-05-07T03:02:07;4.50;;;2.50;;
64037;SDS011;54641;50.168;8.492;2023-05-07T03:04:38;2.90;;;2.00;;
64037;SDS011;54641;50.168;8.492;2023-05-07T03:07:08;5.40;;;2.30;;
64037;SDS011;54641;50.168;8.492;2023-05-07T03:09:39;4.20;;;2.30;;
64037;SDS011;54641;50.168;8.492;2023-05-07T03:12:10;5.10;;;2.50;;
64037;SDS011;54641;50.168;8.492;2023-05-07T03:14:41;4.70;;;2.40;;
64037;SDS011;54641;50.168;8.492;2023-05-07T03:17:12;4.30;;;2.30;;
64037;SDS011;54641;50.168;8.492;2023-05-07T03:19:43;3.40;;;1.90;;
64037;SDS011;54641;50.168;8.492;2023-05-07T03:22:14;4.30;;;2.10;;
64037;SDS011;54641;50.168;8.492;2023-05-07T03:24:45;3.90;;;1.90;;
64037;SDS011;54641;50.168;8.492;2023-05-07T03:27:16;3.80;;;2.40;;
64037;SDS011;54641;50.168;8.492;2023-05-07T03:29:48;3.80;;;2.50;;
64037;SDS011;54641;50.168;8.492;2023-05-07T03:32:19;5.00;;;2.50;;
64037;SDS011;54641;50.168;8.492;2023-05-07T03:34:49;3.80;;;2.30;;
64037;SDS011;54641;50.168;8.492;2023-05-07T03:37:21;4.40;;;2.60;;
64037;SDS011;54641;50.168;8.492;2023-05-07T03:39:52;4.80;;;2.00;;
64037;SDS011;54641;50.168;8.492;2023-05-07T03:42:24;4.30;;;2.30;;
64037;SDS011;54641;50.168;8.492;2023-05-07T03:44:54;3.10;;;2.30;;
64037;SDS011;54641;50.168;8.492;2023-05-07T03:47:25;4.10;;;2.60;;
64037;SDS011;54641;50.168;8.492;2023-05-07T03:49:57;3.20;;;2.10;;
64037;SDS011;54641;50.168;8.492;2023-05-07T03:52:30;8.10;;;3.30;;
64037;SDS011;54641;50.168;8.492;2023-05-07T03:55:01;4.10;;;2.30;;
64037;SDS011;54641;50.168;8.492;2023-05-07T03:57:34;4.30;;;2.20;;
64037;SDS011;54641;50.168;8.492;2023-05-07T04:00:06;5.60;;;2.40;;
64037;SDS011;54641;50.168;8.492;2023-05-07T04:02:50;5.40;;;2.10;;
64037;SDS011;54641;50.168;8.492;2023-05-07T04:05:26;3.20;;;2.40;;
64037;SDS011;54641;50.168;8.492;2023-05-07T04:08:00;3.30;;;2.20;;
64037;SDS011;54641;50.168;8.492;2023-05-07T04:10:36;4.00;;;2.70;;
64037;SDS011;54641;50.168;8.492;2023-05-07T04:13:09;3.80;;;2.40;;
64037;SDS011;54641;50.168;8.492;2023-05-07T04:15:40;3.30;;;2.30;;
64037;SDS011;54641;50.168;8.492;2023-05-07T04:18:12;4.60;;;2.20;;
64037;SDS011;54641;50.168;8.492;2023-05-07T04:20:44;4.10;;;2.80;;
64037;SDS011;54641;50.168;8.492;2023-05-07T04:23:15;4.10;;;2.40;;
64037;SDS011;54641;50.168;8.492;2023-05-07T04:25:45;5.10;;;2.20;;
64037;SDS011;54641;50.168;8.492;2023-05-07T04:28:22;4.20;;;2.40;;
64037;SDS011;54641;50.168;8.492;2023-05-07T04:30:53;3.40;;;2.50;;
64037;SDS011;54641;50.168;8.492;2023-05-07T04:33:24;2.90;;;2.30;;
64037;SDS011;54641;50.168;8.492;2023-05-07T04:35:56;4.80;;;2.40;;
64037;SDS011;54641;50.168;8.492;2023-05-07T04:38:30;4.00;;;2.70;;
64037;SDS011;54641;50.168;8.492;2023-05-07T04:41:03;4.30;;;2.20;;
64037;SDS011;54641;50.168;8.492;2023-05-07T04:43:37;5.10;;;2.50;;
64037;SDS011;54641;50.168;8.492;2023-05-07T04:46:07;3.80;;;2.30;;
64037;SDS011;54641;50.168;8.492;2023-05-07T04:48:38;3.00;;;2.00;;
64037;SDS011;54641;50.168;8.492;2023-05-07T04:51:08;3.30;;;2.30;;
64037;SDS011;54641;50.168;8.492;2023-05-07T04:53:38;3.50;;;2.60;;
64037;SDS011;54641;50.168;8.492;2023-05-07T04:56:09;4.00;;;2.50;;
64037;SDS011;54641;50.168;8.492;2023-05-07T04:58:42;5.10;;;2.90;;
64037;SDS011;54641;50.168;8.492;2023-05-07T05:01:12;3.70;;;2.50;;
64037;SDS011;54641;50.168;8.492;2023-05-07T05:03:42;4.50;;;2.30;;
64037;SDS011;54641;50.168;8.492;2023-05-07T05:06:13;4.40;;;2.50;;
64037;SDS011;54641;50.168;8.492;2023-05-07T05:08:43;4.70;;;2.50;;
64037;SDS011;54641;50.168;8.492;2023-05-07T05:11:13;3.90;;;2.50;;
64037;SDS011;54641;50.168;8.492;2023-05-07T05:13:44;4.40;;;2.50;;
64037;SDS011;54641;50.168;8.492;2023-05-07T05:16:18;4.00;;;2.70;;
64037;SDS011;54641;50.168;8.492;2023-05-07T05:18:48;4.10;;;2.30;;
64037;SDS011;54641;50.168;8.492;2023-05-07T05:21:19;5.30;;;2.70;;
64037;SDS011;54641;50.168;8.492;2023-05-07T05:23:52;3.90;;;2.40;;
64037;SDS011;54641;50.168;8.492;2023-05-07T05:26:24;5.30;;;2.80;;
64037;SDS011;54641;50.168;8.492;2023-05-07T05:28:54;3.20;;;2.40;;
64037;SDS011;54641;50.168;8.492;2023-05-07T05:31:25;3.90;;;3.00;;
64037;SDS011;54641;50.168;8.492;2023-05-07T05:33:56;4.50;;;2.80;;
64037;SDS011;54641;50.168;8.492;2023-05-07T05:36:27;3.10;;;2.40;;
64037;SDS011;54641;50.168;8.492;2023-05-07T05:38:59;3.90;;;2.90;;
64037;SDS011;54641;50.168;8.492;2023-05-07T05:41:29;4.60;;;3.70;;
64037;SDS011;54641;50.168;8.492;2023-05-07T05:44:00;4.50;;;3.10;;
64037;SDS011;54641;50.168;8.492;2023-05-07T05:46:30;5.30;;;2.90;;
64037;SDS011;54641;50.168;8.492;2023-05-07T05:49:03;4.40;;;2.90;;
64037;SDS011;54641;50.168;8.492;2023-05-07T05:51:34;3.90;;;2.90;;
64037;SDS011;54641;50.168;8.492;2023-05-07T05:54:09;4.20;;;2.80;;
64037;SDS011;54641;50.168;8.492;2023-05-07T05:56:48;5.30;;;2.70;;
64037;SDS011;54641;50.168;8.492;2023-05-07T05:59:24;3.70;;;2.80;;
64037;SDS011;54641;50.168;8.492;2023-05-07T06:01:58;4.90;;;3.10;;
64037;SDS011;54641;50.168;8.492;2023-05-07T06:04:29;4.20;;;3.10;;
64037;SDS011;54641;50.168;8.492;2023-05-07T06:07:06;4.10;;;3.00;;
64037;SDS011;54641;50.168;8.492;2023-05-07T06:09:38;5.30;;;3.00;;
64037;SDS011;54641;50.168;8.492;2023-05-07T06:12:11;3.80;;;3.20;;
64037;SDS011;54641;50.168;8.492;2023-05-07T06:14:44;4.10;;;3.00;;
64037;SDS011;54641;50.168;8.492;2023-05-07T06:17:16;4.20;;;3.00;;
64037;SDS011;54641;50.168;8.492;2023-05-07T06:19:49;3.40;;;3.00;;
64037;SDS011;54641;50.168;8.492;2023-05-07T06:22:21;5.60;;;3.20;;
64037;SDS011;54641;50.168;8.492;2023-05-07T06:24:52;4.40;;;3.20;;
64037;SDS011;54641;50.168;8.492;2023-05-07T06:27:22;4.10;;;2.90;;
64037;SDS011;54641;50.168;8.492;2023-05-07T06:29:53;4.40;;;3.00;;
64037;SDS011;54641;50.168;8.492;2023-05-07T06:32:24;4.30;;;3.30;;
64037;SDS011;54641;50.168;8.492;2023-05-07T06:34:55;4.20;;;2.80;;
64037;SDS011;54641;50.168;8.492;2023-05-07T06:37:25;4.50;;;3.30;;
64037;SDS011;54641;50.168;8.492;2023-05-07T06:40:07;4.60;;;2.90;;
64037;SDS011;54641;50.168;8.492;2023-05-07T06:42:40;3.40;;;2.70;;
64037;SDS011;54641;50.168;8.492;2023-05-07T06:45:24;5.20;;;3.10;;
64037;SDS011;54641;50.168;8.492;2023-05-07T06:47:55;4.10;;;2.90;;
64037;SDS011;54641;50.168;8.492;2023-05-07T06:50:26;3.60;;;2.90;;
64037;SDS011;54641;50.168;8.492;2023-05-07T06:52:57;5.40;;;3.10;;
64037;SDS011;54641;50.168;8.492;2023-05-07T06:55:31;5.30;;;3.30;;
64037;SDS011;54641;50.168;8.492;2023-05-07T06:58:01;3.30;;;2.90;;
64037;SDS011;54641;50.168;8.492;2023-05-07T07:00:32;4.10;;;2.50;;
64037;SDS011;54641;50.168;8.492;2023-05-07T07:03:03;3.50;;;2.90;;
64037;SDS011;54641;50.168;8.492;2023-05-07T07:05:34;4.30;;;3.30;;
64037;SDS011;54641;50.168;8.492;2023-05-07T07:08:06;3.70;;;3.00;;
64037;SDS011;54641;50.168;8.492;2023-05-07T07:10:37;5.30;;;3.50;;
64037;SDS011;54641;50.168;8.492;2023-05-07T07:13:14;3.50;;;3.10;;
64037;SDS011;54641;50.168;8.492;2023-05-07T07:15:45;3.90;;;3.40;;
64037;SDS011;54641;50.168;8.492;2023-05-07T07:18:17;6.20;;;3.40;;
64037;SDS011;54641;50.168;8.492;2023-05-07T07:20:50;3.80;;;3.00;;
64037;SDS011;54641;50.168;8.492;2023-05-07T07:23:21;5.00;;;3.50;;
64037;SDS011;54641;50.168;8.492;2023-05-07T07:25:52;5.20;;;3.30;;
64037;SDS011;54641;50.168;8.492;2023-05-07T07:28:23;4.90;;;3.60;;
64037;SDS011;54641;50.168;8.492;2023-05-07T07:30:54;6.60;;;3.90;;
64037;SDS011;54641;50.168;8.492;2023-05-07T07:33:28;4.80;;;3.60;;
64037;SDS011;54641;50.168;8.492;2023-05-07T07:35:58;4.70;;;3.60;;
64037;SDS011;54641;50.168;8.492;2023-05-07T07:38:29;4.80;;;3.80;;
64037;SDS011;54641;50.168;8.492;2023-05-07T07:41:04;5.60;;;3.70;;
64037;SDS011;54641;50.168;8.492;2023-05-07T07:43:39;4.70;;;3.60;;
64037;SDS011;54641;50.168;8.492;2023-05-07T07:46:10;4.80;;;3.40;;
64037;SDS011;54641;50.168;8.492;2023-05-07T07:51:12;5.00;;;4.00;;
64037;SDS011;54641;50.168;8.492;2023-05-07T07:53:42;5.70;;;3.70;;
64037;SDS011;54641;50.168;8.492;2023-05-07T07:56:12;4.10;;;3.50;;
64037;SDS011;54641;50.168;8.492;2023-05-07T07:58:43;5.80;;;4.00;;
64037;SDS011;54641;50.168;8.492;2023-05-07T08:01:14;6.50;;;3.80;;
64037;SDS011;54641;50.168;8.492;2023-05-07T08:03:46;5.90;;;4.90;;
64037;SDS011;54641;50.168;8.492;2023-05-07T08:06:17;4.70;;;4.00;;
64037;SDS011;54641;50.168;8.492;2023-05-07T08:08:48;5.80;;;4.10;;
64037;SDS011;54641;50.168;8.492;2023-05-07T08:11:19;4.90;;;4.00;;
64037;SDS011;54641;50.168;8.492;2023-05-07T08:13:50;6.40;;;4.20;;
64037;SDS011;54641;50.168;8.492;2023-05-07T08:16:21;5.20;;;4.00;;
64037;SDS011;54641;50.168;8.492;2023-05-07T08:18:52;5.00;;;4.10;;
64037;SDS011;54641;50.168;8.492;2023-05-07T08:21:25;4.80;;;4.00;;
64037;SDS011;54641;50.168;8.492;2023-05-07T08:24:02;6.10;;;4.30;;
64037;SDS011;54641;50.168;8.492;2023-05-07T08:26:36;5.10;;;4.30;;
64037;SDS011;54641;50.168;8.492;2023-05-07T08:29:08;5.30;;;4.30;;
64037;SDS011;54641;50.168;8.492;2023-05-07T08:31:42;5.60;;;4.50;;
64037;SDS011;54641;50.168;8.492;2023-05-07T08:34:13;5.60;;;4.40;;
64037;SDS011;54641;50.168;8.492;2023-05-07T08:36:47;5.60;;;4.50;;
64037;SDS011;54641;50.168;8.492;2023-05-07T08:39:21;5.60;;;4.80;;
64037;SDS011;54641;50.168;8.492;2023-05-07T08:41:52;5.10;;;4.50;;
64037;SDS011;54641;50.168;8.492;2023-05-07T08:44:26;6.20;;;4.80;;
64037;SDS011;54641;50.168;8.492;2023-05-07T08:46:57;6.10;;;4.70;;
64037;SDS011;54641;50.168;8.492;2023-05-07T08:49:29;6.30;;;5.10;;
64037;SDS011;54641;50.168;8.492;2023-05-07T08:52:00;7.00;;;5.60;;
64037;SDS011;54641;50.168;8.492;2023-05-07T08:54:31;6.10;;;5.40;;
64037;SDS011;54641;50.168;8.492;2023-05-07T08:57:02;7.00;;;5.30;;
64037;SDS011;54641;50.168;8.492;2023-05-07T08:59:33;5.70;;;5.10;;
64037;SDS011;54641;50.168;8.492;2023-05-07T09:02:04;6.40;;;5.80;;
64037;SDS011;54641;50.168;8.492;2023-05-07T09:04:37;5.70;;;5.20;;
64037;SDS011;54641;50.168;8.492;2023-05-07T09:07:08;5.70;;;5.20;;
64037;SDS011;54641;50.168;8.492;2023-05-07T09:09:42;7.70;;;5.30;;
64037;SDS011;54641;50.168;8.492;2023-05-07T09:12:14;7.10;;;6.30;;
64037;SDS011;54641;50.168;8.492;2023-05-07T09:14:44;5.90;;;5.00;;
64037;SDS011;54641;50.168;8.492;2023-05-07T09:17:16;7.40;;;5.50;;
64037;SDS011;54641;50.168;8.492;2023-05-07T09:19:50;6.50;;;5.90;;
64037;SDS011;54641;50.168;8.492;2023-05-07T09:22:21;7.00;;;6.00;;
64037;SDS011;54641;50.168;8.492;2023-05-07T09:25:00;6.40;;;5.80;;
64037;SDS011;54641;50.168;8.492;2023-05-07T09:27:31;5.90;;;5.30;;
64037;SDS011;54641;50.168;8.492;2023-05-07T09:30:04;7.60;;;6.20;;
64037;SDS011;54641;50.168;8.492;2023-05-07T09:32:37;6.20;;;5.10;;
64037;SDS011;54641;50.168;8.492;2023-05-07T09:35:15;7.30;;;6.20;;
64037;SDS011;54641;50.168;8.492;2023-05-07T09:37:49;7.20;;;5.60;;
64037;SDS011;54641;50.168;8.492;2023-05-07T09:40:24;7.20;;;6.50;;
64037;SDS011;54641;50.168;8.492;2023-05-07T09:43:09;6.70;;;6.00;;
64037;SDS011;54641;50.168;8.492;2023-05-07T09:46:00;8.00;;;6.20;;
64037;SDS011;54641;50.168;8.492;2023-05-07T09:48:33;8.00;;;6.00;;
64037;SDS011;54641;50.168;8.492;2023-05-07T09:51:11;6.30;;;5.70;;
64037;SDS011;54641;50.168;8.492;2023-05-07T09:53:48;8.40;;;6.80;;
64037;SDS011;54641;50.168;8.492;2023-05-07T09:56:18;6.70;;;5.90;;
64037;SDS011;54641;50.168;8.492;2023-05-07T09:58:50;8.60;;;6.10;;
64037;SDS011;54641;50.168;8.492;2023-05-07T10:01:22;6.80;;;6.10;;
64037;SDS011;54641;50.168;8.492;2023-05-07T10:03:53;7.60;;;6.70;;
64037;SDS011;54641;50.168;8.492;2023-05-07T10:06:25;9.00;;;5.80;;
64037;SDS011;54641;50.168;8.492;2023-05-07T10:08:55;8.50;;;6.30;;
64037;SDS011;54641;50.168;8.492;2023-05-07T10:11:26;7.00;;;6.30;;
64037;SDS011;54641;50.168;8.492;2023-05-07T10:13:56;7.10;;;6.30;;
64037;SDS011;54641;50.168;8.492;2023-05-07T10:16:32;6.50;;;5.60;;
64037;SDS011;54641;50.168;8.492;2023-05-07T10:19:08;6.10;;;5.30;;
64037;SDS011;54641;50.168;8.492;2023-05-07T10:25:16;7.70;;;6.10;;
64037;SDS011;54641;50.168;8.492;2023-05-07T10:27:50;5.80;;;5.30;;
64037;SDS011;54641;50.168;8.492;2023-05-07T10:30:26;7.40;;;5.30;;
64037;SDS011;54641;50.168;8.492;2023-05-07T10:33:04;5.80;;;5.10;;
64037;SDS011;54641;50.168;8.492;2023-05-07T10:35:37;6.70;;;6.00;;
64037;SDS011;54641;50.168;8.492;2023-05-07T10:38:10;6.50;;;5.90;;
64037;SDS011;54641;50.168;8.492;2023-05-07T10:40:41;6.20;;;5.50;;
64037;SDS011;54641;50.168;8.492;2023-05-07T10:43:16;6.30;;;5.50;;
64037;SDS011;54641;50.168;8.492;2023-05-07T10:49:08;7.70;;;5.40;;
64037;SDS011;54641;50.168;8.492;2023-05-07T10:52:13;6.90;;;6.10;;
64037;SDS011;54641;50.168;8.492;2023-05-07T10:58:24;7.30;;;5.40;;
64037;SDS011;54641;50.168;8.492;2023-05-07T11:07:36;6.00;;;5.40;;
64037;SDS011;54641;50.168;8.492;2023-05-07T11:10:11;6.80;;;6.20;;
64037;SDS011;54641;50.168;8.492;2023-05-07T11:16:37;7.60;;;5.90;;
64037;SDS011;54641;50.168;8.492;2023-05-07T11:19:16;6.60;;;5.50;;
64037;SDS011;54641;50.168;8.492;2023-05-07T11:24:39;6.30;;;5.40;;
64037;SDS011;54641;50.168;8.492;2023-05-07T11:27:10;7.30;;;5.00;;
64037;SDS011;54641;50.168;8.492;2023-05-07T11:29:41;22.40;;;20.40;;
64037;SDS011;54641;50.168;8.492;2023-05-07T11:32:16;6.80;;;5.80;;
64037;SDS011;54641;50.168;8.492;2023-05-07T11:34:52;6.80;;;5.50;;
64037;SDS011;54641;50.168;8.492;2023-05-07T11:40:49;7.20;;;5.60;;
64037;SDS011;54641;50.168;8.492;2023-05-07T11:43:20;5.80;;;5.20;;
64037;SDS011;54641;50.168;8.492;2023-05-07T11:45:50;5.20;;;4.70;;
64037;SDS011;54641;50.168;8.492;2023-05-07T11:48:20;6.10;;;4.70;;
64037;SDS011;54641;50.168;8.492;2023-05-07T11:50:51;6.00;;;4.40;;
64037;SDS011;54641;50.168;8.492;2023-05-07T11:53:25;5.20;;;4.30;;
64037;SDS011;54641;50.168;8.492;2023-05-07T11:55:56;5.10;;;4.30;;
64037;SDS011;54641;50.168;8.492;2023-05-07T11:58:26;6.30;;;5.00;;
64037;SDS011;54641;50.168;8.492;2023-05-07T12:00:57;6.10;;;5.50;;
64037;SDS011;54641;50.168;8.492;2023-05-07T12:03:27;6.40;;;5.60;;
64037;SDS011;54641;50.168;8.492;2023-05-07T12:06:02;6.20;;;5.50;;
64037;SDS011;54641;50.168;8.492;2023-05-07T12:08:37;6.20;;;5.30;;
64037;SDS011;54641;50.168;8.492;2023-05-07T12:11:08;5.20;;;4.70;;
64037;SDS011;54641;50.168;8.492;2023-05-07T12:13:41;5.40;;;4.90;;
64037;SDS011;54641;50.168;8.492;2023-05-07T12:16:11;6.10;;;5.60;;
64037;SDS011;54641;50.168;8.492;2023-05-07T12:18:42;5.40;;;4.90;;
64037;SDS011;54641;50.168;8.492;2023-05-07T12:21:12;5.00;;;4.50;;
64037;SDS011;54641;50.168;8.492;2023-05-07T12:23:44;4.80;;;4.40;;
64037;SDS011;54641;50.168;8.492;2023-05-07T12:26:15;6.30;;;4.70;;
64037;SDS011;54641;50.168;8.492;2023-05-07T12:35:28;5.40;;;4.90;;
64037;SDS011;54641;50.168;8.492;2023-05-07T12:37:59;4.80;;;4.30;;
64037;SDS011;54641;50.168;8.492;2023-05-07T12:40:38;4.80;;;4.40;;
64037;SDS011;54641;50.168;8.492;2023-05-07T12:43:09;4.60;;;4.20;;
64037;SDS011;54641;50.168;8.492;2023-05-07T12:45:46;5.30;;;3.50;;
64037;SDS011;54641;50.168;8.492;2023-05-07T12:48:19;4.10;;;3.70;;
64037;SDS011;54641;50.168;8.492;2023-05-07T12:50:50;4.60;;;3.90;;
64037;SDS011;54641;50.168;8.492;2023-05-07T12:53:21;6.80;;;5.20;;
64037;SDS011;54641;50.168;8.492;2023-05-07T12:55:54;5.50;;;4.70;;
64037;SDS011;54641;50.168;8.492;2023-05-07T12:58:29;5.20;;;4.50;;
64037;SDS011;54641;50.168;8.492;2023-05-07T13:01:05;5.80;;;4.10;;
64037;SDS011;54641;50.168;8.492;2023-05-07T13:03:37;5.20;;;4.10;;
64037;SDS011;54641;50.168;8.492;2023-05-07T13:06:09;5.40;;;4.50;;
64037;SDS011;54641;50.168;8.492;2023-05-07T13:08:40;4.80;;;4.30;;
64037;SDS011;54641;50.168;8.492;2023-05-07T13:11:11;5.30;;;4.80;;
64037;SDS011;54641;50.168;8.492;2023-05-07T13:13:41;7.10;;;4.10;;
64037;SDS011;54641;50.168;8.492;2023-05-07T13:16:12;6.20;;;4.60;;
64037;SDS011;54641;50.168;8.492;2023-05-07T13:18:42;5.70;;;4.80;;
64037;SDS011;54641;50.168;8.492;2023-05-07T13:21:14;5.50;;;5.00;;
64037;SDS011;54641;50.168;8.492;2023-05-07T13:23:44;5.40;;;4.90;;
64037;SDS011;54641;50.168;8.492;2023-05-07T13:26:14;6.50;;;4.40;;
64037;SDS011;54641;50.168;8.492;2023-05-07T13:28:54;5.70;;;4.60;;
64037;SDS011;54641;50.168;8.492;2023-05-07T13:31:25;5.40;;;4.90;;
64037;SDS011;54641;50.168;8.492;2023-05-07T13:33:55;5.30;;;4.80;;
64037;SDS011;54641;50.168;8.492;2023-05-07T13:36:25;5.80;;;5.00;;
64037;SDS011;54641;50.168;8.492;2023-05-07T13:38:56;5.50;;;5.00;;
64037;SDS011;54641;50.168;8.492;2023-05-07T13:41:27;5.70;;;4.90;;
64037;SDS011;54641;50.168;8.492;2023-05-07T13:43:58;5.40;;;4.90;;
64037;SDS011;54641;50.168;8.492;2023-05-07T13:46:28;6.00;;;5.10;;
64037;SDS011;54641;50.168;8.492;2023-05-07T13:48:58;5.90;;;5.10;;
64037;SDS011;54641;50.168;8.492;2023-05-07T13:51:29;5.40;;;4.80;;
64037;SDS011;54641;50.168;8.492;2023-05-07T13:53:59;6.60;;;4.90;;
64037;SDS011;54641;50.168;8.492;2023-05-07T13:56:30;6.80;;;4.80;;
64037;SDS011;54641;50.168;8.492;2023-05-07T13:59:01;5.00;;;4.50;;
64037;SDS011;54641;50.168;8.492;2023-05-07T14:01:31;5.90;;;4.70;;
64037;SDS011;54641;50.168;8.492;2023-05-07T14:04:02;6.80;;;4.70;;
64037;SDS011;54641;50.168;8.492;2023-05-07T14:06:33;6.90;;;5.00;;
64037;SDS011;54641;50.168;8.492;2023-05-07T14:09:03;6.30;;;4.70;;
64037;SDS011;54641;50.168;8.492;2023-05-07T14:11:33;7.60;;;4.70;;
64037;SDS011;54641;50.168;8.492;2023-05-07T14:14:04;5.00;;;4.50;;
64037;SDS011;54641;50.168;8.492;2023-05-07T14:16:34;5.10;;;4.50;;
64037;SDS011;54641;50.168;8.492;2023-05-07T14:19:04;4.90;;;4.40;;
64037;SDS011;54641;50.168;8.492;2023-05-07T14:21:35;4.80;;;4.20;;
64037;SDS011;54641;50.168;8.492;2023-05-07T14:24:05;4.40;;;3.90;;
64037;SDS011;54641;50.168;8.492;2023-05-07T14:26:36;4.70;;;4.30;;
64037;SDS011;54641;50.168;8.492;2023-05-07T14:29:06;4.00;;;3.60;;
64037;SDS011;54641;50.168;8.492;2023-05-07T14:31:37;5.00;;;3.70;;
64037;SDS011;54641;50.168;8.492;2023-05-07T14:34:07;4.40;;;4.00;;
64037;SDS011;54641;50.168;8.492;2023-05-07T14:36:37;4.70;;;4.20;;
64037;SDS011;54641;50.168;8.492;2023-05-07T14:39:08;4.70;;;4.10;;
64037;SDS011;54641;50.168;8.492;2023-05-07T14:41:40;4.00;;;3.60;;
64037;SDS011;54641;50.168;8.492;2023-05-07T14:44:11;4.50;;;3.90;;
64037;SDS011;54641;50.168;8.492;2023-05-07T14:46:41;4.20;;;3.80;;
64037;SDS011;54641;50.168;8.492;2023-05-07T14:49:13;4.30;;;3.90;;
64037;SDS011;54641;50.168;8.492;2023-05-07T14:51:45;4.40;;;3.70;;
64037;SDS011;54641;50.168;8.492;2023-05-07T14:54:16;4.50;;;4.10;;
64037;SDS011;54641;50.168;8.492;2023-05-07T14:56:46;4.80;;;3.80;;
64037;SDS011;54641;50.168;8.492;2023-05-07T14:59:18;4.30;;;3.90;;
64037;SDS011;54641;50.168;8.492;2023-05-07T15:04:18;5.20;;;4.50;;
64037;SDS011;54641;50.168;8.492;2023-05-07T15:06:48;4.70;;;4.20;;
64037;SDS011;54641;50.168;8.492;2023-05-07T15:09:19;6.00;;;3.90;;
64037;SDS011;54641;50.168;8.492;2023-05-07T15:11:50;5.30;;;3.80;;
64037;SDS011;54641;50.168;8.492;2023-05-07T15:14:20;5.40;;;4.20;;
64037;SDS011;54641;50.168;8.492;2023-05-07T15:16:52;5.10;;;4.00;;
64037;SDS011;54641;50.168;8.492;2023-05-07T15:19:23;4.30;;;3.90;;
64037;SDS011;54641;50.168;8.492;2023-05-07T15:21:57;4.60;;;4.20;;
64037;SDS011;54641;50.168;8.492;2023-05-07T15:24:30;5.20;;;4.30;;
64037;SDS011;54641;50.168;8.492;2023-05-07T15:27:01;5.00;;;4.00;;
64037;SDS011;54641;50.168;8.492;2023-05-07T15:29:34;4.80;;;4.30;;
64037;SDS011;54641;50.168;8.492;2023-05-07T15:32:11;5.50;;;4.40;;
64037;SDS011;54641;50.168;8.492;2023-05-07T15:34:41;4.40;;;4.00;;
64037;SDS011;54641;50.168;8.492;2023-05-07T15:37:12;4.60;;;3.70;;
64037;SDS011;54641;50.168;8.492;2023-05-07T15:39:44;9.80;;;4.40;;
64037;SDS011;54641;50.168;8.492;2023-05-07T15:42:15;5.30;;;4.80;;
64037;SDS011;54641;50.168;8.492;2023-05-07T15:44:45;7.00;;;6.20;;
64037;SDS011;54641;50.168;8.492;2023-05-07T15:47:15;10.20;;;8.20;;
64037;SDS011;54641;50.168;8.492;2023-05-07T15:49:46;4.50;;;3.90;;
64037;SDS011;54641;50.168;8.492;2023-05-07T15:52:16;5.20;;;3.70;;
64037;SDS011;54641;50.168;8.492;2023-05-07T15:54:48;4.50;;;3.80;;
64037;SDS011;54641;50.168;8.492;2023-05-07T15:57:19;4.10;;;3.40;;